createdAt,value
2023-04-13T00:00:00.178Z,99857.09
2023-04-13T00:01:00.945Z,99856.89
2023-04-13T00:02:01.844Z,99856.55
2023-04-13T00:03:02.557Z,99856.93
2023-04-13T00:04:03.688Z,99856.64
2023-04-13T00:05:03.451Z,99856.48
2023-04-13T00:06:04.130Z,99856.56
2023-04-13T00:07:04.671Z,99857.20
2023-04-13T00:08:06.186Z,99857.71
2023-04-13T00:09:05.895Z,99858.64
2023-04-13T00:10:06.602Z,99859.31
2023-04-13T00:10:16.669Z,99860.75
2023-04-13T00:11:17.047Z,99862.14
2023-04-13T00:12:16.878Z,99863.28
2023-04-13T00:13:17.526Z,99865.55
2023-04-13T00:14:18.173Z,99867.91
2023-04-13T00:15:18.679Z,99869.45
2023-04-13T00:16:19.481Z,99872.62
2023-04-13T00:17:20.160Z,99875.00
2023-04-13T00:18:20.958Z,99878.20
2023-04-13T00:19:21.518Z,99881.86
2023-04-13T00:20:22.368Z,99885.22
2023-04-13T00:21:22.809Z,99888.49
2023-04-13T00:21:31.432Z,99881.03
2023-04-13T00:22:31.970Z,99884.44
2023-04-13T00:23:32.967Z,99888.13
2023-04-13T00:24:33.620Z,99891.44
2023-04-13T00:25:34.120Z,99895.68
2023-04-13T00:26:34.764Z,99899.51
2023-04-13T00:27:35.483Z,99903.12
2023-04-13T00:28:36.135Z,99906.89
2023-04-13T00:29:36.739Z,99910.37
2023-04-13T00:30:37.338Z,99912.93
2023-04-13T00:31:37.957Z,99915.33
2023-04-13T00:32:38.483Z,99917.64
2023-04-13T00:32:47.172Z,99919.86
2023-04-13T00:33:47.985Z,99922.46
2023-04-13T00:34:48.688Z,99924.69
2023-04-13T00:35:49.487Z,99926.62
2023-04-13T00:36:49.998Z,99928.43
2023-04-13T00:37:50.787Z,99929.69
2023-04-13T00:38:51.573Z,99931.28
2023-04-13T00:39:52.423Z,99931.78
2023-04-13T00:40:52.945Z,99933.92
2023-04-13T00:41:53.777Z,99936.27
2023-04-13T00:42:54.568Z,99938.03
2023-04-13T00:43:55.077Z,99939.63
2023-04-13T00:44:55.611Z,99941.94
2023-04-13T00:45:04.714Z,99943.78
2023-04-13T00:46:05.337Z,99945.59
2023-04-13T00:47:06.087Z,99947.09
2023-04-13T00:48:06.764Z,99948.94
2023-04-13T00:49:07.438Z,99950.39
2023-04-13T00:50:08.002Z,99951.62
2023-04-13T00:51:08.544Z,99953.47
2023-04-13T00:52:08.844Z,99955.68
2023-04-13T00:53:10.834Z,99956.61
2023-04-13T00:54:10.054Z,99957.11
2023-04-13T00:55:10.525Z,99958.88
2023-04-13T00:56:11.316Z,99960.55
2023-04-13T00:56:19.897Z,99946.03
2023-04-13T00:57:20.484Z,99948.88
2023-04-13T00:58:21.020Z,99950.81
2023-04-13T00:59:21.155Z,99953.58
2023-04-13T01:00:21.673Z,99956.02
2023-04-13T01:01:22.258Z,99957.23
2023-04-13T01:02:23.200Z,99958.86
2023-04-13T01:03:23.786Z,99961.05
2023-04-13T01:04:24.329Z,99963.02
2023-04-13T01:05:25.138Z,99965.75
2023-04-13T01:06:26.241Z,99967.55
2023-04-13T01:06:41.910Z,99968.86
2023-04-13T01:07:41.984Z,99970.61
2023-04-13T01:08:42.467Z,99971.50
2023-04-13T01:09:43.047Z,99973.34
2023-04-13T01:10:43.661Z,99975.06
2023-04-13T01:11:44.665Z,99976.88
2023-04-13T01:12:45.571Z,99978.92
2023-04-13T01:13:46.334Z,99980.69
2023-04-13T01:14:46.854Z,99983.08
2023-04-13T01:15:47.455Z,99984.22
2023-04-13T01:16:48.158Z,99985.27
2023-04-13T01:17:48.843Z,99986.73
2023-04-13T01:17:57.460Z,99988.58
2023-04-13T01:18:58.086Z,99990.38
2023-04-13T01:19:58.720Z,99991.60
2023-04-13T01:20:59.303Z,99992.91
2023-04-13T01:21:59.882Z,99994.45
2023-04-13T01:23:00.819Z,99995.59
2023-04-13T01:24:01.409Z,99995.03
2023-04-13T01:25:02.047Z,99995.97
2023-04-13T01:26:02.620Z,99996.84
2023-04-13T01:27:03.171Z,99997.47
2023-04-13T01:28:03.691Z,99997.17
2023-04-13T01:29:04.548Z,99997.59
2023-04-13T01:29:13.234Z,99719.59
2023-04-13T01:30:13.779Z,100010.75
2023-04-13T01:31:14.393Z,100010.54
2023-04-13T01:32:15.037Z,100010.03
2023-04-13T01:33:15.853Z,100009.53
2023-04-13T01:34:16.413Z,100010.08
2023-04-13T01:35:17.240Z,100009.92
2023-04-13T01:36:18.174Z,100010.16
2023-04-13T01:37:18.937Z,100010.00
2023-04-13T01:38:19.681Z,100009.83
2023-04-13T01:39:19.854Z,100010.08
2023-04-13T01:40:20.395Z,100010.08
2023-04-13T01:40:30.025Z,100009.41
2023-04-13T01:41:30.103Z,100009.07
2023-04-13T01:42:30.881Z,100009.07
2023-04-13T01:43:31.704Z,100009.07
2023-04-13T01:44:32.403Z,100008.73
2023-04-13T01:45:33.046Z,100007.64
2023-04-13T01:46:33.153Z,100007.31
2023-04-13T01:47:34.179Z,100007.14
2023-04-13T01:48:34.789Z,100006.39
2023-04-13T01:49:35.377Z,100006.50
2023-04-13T01:50:35.928Z,100006.59
2023-04-13T01:51:36.613Z,100006.09
2023-04-13T01:51:45.277Z,100005.46
2023-04-13T01:52:45.935Z,100005.38
2023-04-13T01:53:46.514Z,100004.41
2023-04-13T01:54:47.051Z,100003.41
2023-04-13T01:55:47.808Z,100002.91
2023-04-13T01:56:48.457Z,100002.77
2023-04-13T01:57:48.975Z,100002.95
2023-04-13T01:58:49.544Z,100002.06
2023-04-13T01:59:50.208Z,100001.94
2023-04-13T02:00:51.000Z,100001.94
2023-04-13T02:01:51.560Z,100002.40
2023-04-13T02:02:52.386Z,100001.73
2023-04-13T02:03:00.927Z,99988.69
2023-04-13T02:04:01.512Z,99989.19
2023-04-13T02:05:02.047Z,99989.44
2023-04-13T02:06:02.596Z,99989.85
2023-04-13T02:07:03.313Z,99990.74
2023-04-13T02:08:04.067Z,99991.41
2023-04-13T02:09:04.944Z,99992.09
2023-04-13T02:10:05.557Z,99992.42
2023-04-13T02:11:06.089Z,99993.38
2023-04-13T02:12:06.654Z,99994.22
2023-04-13T02:13:07.238Z,99995.23
2023-04-13T02:14:07.777Z,99996.16
2023-04-13T02:14:16.412Z,99986.68
2023-04-13T02:15:17.125Z,99988.77
2023-04-13T02:16:17.765Z,99991.00
2023-04-13T02:17:18.386Z,99992.73
2023-04-13T02:18:19.401Z,99993.64
2023-04-13T02:19:18.981Z,99994.40
2023-04-13T02:20:19.486Z,99995.66
2023-04-13T02:21:20.242Z,99996.72
2023-04-13T02:22:20.996Z,99997.13
2023-04-13T02:23:21.534Z,99997.72
2023-04-13T02:24:22.254Z,99999.11
2023-04-13T02:25:23.105Z,99999.56
2023-04-13T02:25:31.729Z,99988.61
2023-04-13T02:26:32.671Z,99989.74
2023-04-13T02:27:33.392Z,99990.71
2023-04-13T02:28:34.018Z,99992.09
2023-04-13T02:29:34.549Z,99992.67
2023-04-13T02:30:35.348Z,99992.98
2023-04-13T02:31:36.103Z,99993.36
2023-04-13T02:32:36.699Z,99993.73
2023-04-13T02:33:37.492Z,99994.65
2023-04-13T02:34:38.067Z,99994.36
2023-04-13T02:35:38.766Z,99995.15
2023-04-13T02:36:39.417Z,99995.61
2023-04-13T02:36:48.025Z,99984.45
2023-04-13T02:37:48.520Z,99985.25
2023-04-13T02:38:49.108Z,99986.97
2023-04-13T02:39:49.613Z,99987.51
2023-04-13T02:40:50.401Z,99987.97
2023-04-13T02:41:51.040Z,99988.69
2023-04-13T02:42:51.603Z,99989.69
2023-04-13T02:43:52.364Z,99989.98
2023-04-13T02:44:52.743Z,99989.95
2023-04-13T02:45:53.327Z,99990.78
2023-04-13T02:46:54.178Z,99991.25
2023-04-13T02:47:02.871Z,99991.74
2023-04-13T02:48:03.113Z,99992.55
2023-04-13T02:49:03.792Z,99993.22
2023-04-13T02:50:04.390Z,99993.34
2023-04-13T02:51:05.326Z,99993.42
2023-04-13T02:52:06.057Z,99994.34
2023-04-13T02:53:06.928Z,99994.47
2023-04-13T02:54:07.455Z,99994.39
2023-04-13T02:55:07.979Z,99994.22
2023-04-13T02:56:08.616Z,99994.97
2023-04-13T02:57:08.681Z,99994.64
2023-04-13T02:58:09.357Z,99994.69
2023-04-13T02:58:17.963Z,99994.59
2023-04-13T02:59:18.805Z,99994.67
2023-04-13T03:00:19.429Z,99994.67
2023-04-13T03:01:19.479Z,99994.67
2023-04-13T03:02:20.043Z,99995.27
2023-04-13T03:03:20.879Z,99995.69
2023-04-13T03:04:21.614Z,99996.02
2023-04-13T03:05:22.314Z,99996.36
2023-04-13T03:06:22.435Z,99996.02
2023-04-13T03:07:22.629Z,99995.52
2023-04-13T03:08:22.989Z,99995.43
2023-04-13T03:09:23.024Z,99995.65
2023-04-13T03:10:23.649Z,99995.31
2023-04-13T03:10:35.243Z,99995.56
2023-04-13T03:11:36.016Z,99996.14
2023-04-13T03:12:36.239Z,99995.72
2023-04-13T03:13:36.912Z,99995.61
2023-04-13T03:14:37.823Z,99995.85
2023-04-13T03:15:38.422Z,99996.10
2023-04-13T03:16:39.307Z,99995.64
2023-04-13T03:17:39.937Z,99996.15
2023-04-13T03:18:40.515Z,99996.73
2023-04-13T03:19:40.880Z,99997.48
2023-04-13T03:20:41.594Z,99998.16
2023-04-13T03:21:42.455Z,99999.67
2023-04-13T03:21:51.140Z,100000.34
2023-04-13T03:22:52.080Z,100000.94
2023-04-13T03:23:52.622Z,100001.27
2023-04-13T03:24:52.789Z,100001.19
2023-04-13T03:25:53.538Z,100000.86
2023-04-13T03:26:54.282Z,100000.69
2023-04-13T03:27:55.100Z,100001.11
2023-04-13T03:28:56.015Z,100001.11
2023-04-13T03:29:56.733Z,100000.43
2023-04-13T03:30:57.270Z,100000.19
2023-04-13T03:31:58.025Z,100000.97
2023-04-13T03:32:06.752Z,99989.31
2023-04-13T03:33:07.312Z,99990.28
2023-04-13T03:34:08.030Z,99990.87
2023-04-13T03:35:08.590Z,99992.38
2023-04-13T03:36:09.458Z,99992.25
2023-04-13T03:37:10.229Z,99992.84
2023-04-13T03:38:11.060Z,99993.42
2023-04-13T03:39:11.820Z,99994.64
2023-04-13T03:40:12.426Z,99995.48
2023-04-13T03:41:13.027Z,99996.45
2023-04-13T03:42:13.589Z,99997.33
2023-04-13T03:43:14.417Z,99998.00
2023-04-13T03:43:23.047Z,99988.34
2023-04-13T03:44:23.777Z,99989.98
2023-04-13T03:45:23.826Z,99990.95
2023-04-13T03:46:24.432Z,99991.75
2023-04-13T03:47:25.452Z,99992.50
2023-04-13T03:48:26.011Z,99993.30
2023-04-13T03:49:26.648Z,99993.97
2023-04-13T03:50:27.453Z,99994.56
2023-04-13T03:51:28.395Z,99995.86
2023-04-13T03:52:28.985Z,99996.99
2023-04-13T03:53:29.899Z,99998.03
2023-04-13T03:54:30.642Z,99999.42
2023-04-13T03:54:40.689Z,100000.94
2023-04-13T03:55:39.715Z,100002.81
2023-04-13T03:56:39.836Z,100003.95
2023-04-13T03:57:40.805Z,100004.41
2023-04-13T03:58:41.376Z,100005.38
2023-04-13T03:59:42.268Z,100006.42
2023-04-13T04:00:43.011Z,100006.30
2023-04-13T04:01:43.624Z,100007.52
2023-04-13T04:02:44.278Z,100008.27
2023-04-13T04:03:44.494Z,100008.77
2023-04-13T04:04:45.045Z,100009.41
2023-04-13T04:05:45.816Z,100010.04
2023-04-13T04:05:54.631Z,99996.61
2023-04-13T04:06:55.025Z,99996.68
2023-04-13T04:07:55.801Z,99997.98
2023-04-13T04:08:56.653Z,99998.36
2023-04-13T04:09:57.555Z,99999.41
2023-04-13T04:10:58.106Z,99999.70
2023-04-13T04:11:58.770Z,100000.20
2023-04-13T04:12:59.575Z,100001.17
2023-04-13T04:14:00.440Z,100002.02
2023-04-13T04:15:00.977Z,100002.27
2023-04-13T04:16:02.990Z,100002.56
2023-04-13T04:17:02.648Z,100002.64
2023-04-13T04:17:11.225Z,100002.89
2023-04-13T04:18:11.399Z,100002.43
2023-04-13T04:19:12.147Z,100003.02
2023-04-13T04:20:12.900Z,100003.09
2023-04-13T04:21:13.941Z,100003.81
2023-04-13T04:22:13.629Z,100003.90
2023-04-13T04:23:14.210Z,100004.15
2023-04-13T04:24:14.894Z,100004.06
2023-04-13T04:25:15.721Z,100003.44
2023-04-13T04:26:16.429Z,100002.84
2023-04-13T04:27:16.964Z,100002.92
2023-04-13T04:28:17.499Z,100002.25
2023-04-13T04:28:26.166Z,100002.17
2023-04-13T04:29:27.140Z,100002.22
2023-04-13T04:30:28.059Z,100002.05
2023-04-13T04:31:28.979Z,100001.55
2023-04-13T04:32:29.208Z,100001.71
2023-04-13T04:33:29.896Z,100001.25
2023-04-13T04:34:30.578Z,100001.00
2023-04-13T04:35:31.264Z,100000.53
2023-04-13T04:36:31.740Z,100000.03
2023-04-13T04:37:32.474Z,99999.62
2023-04-13T04:38:32.914Z,99999.11
2023-04-13T04:39:33.524Z,99998.78
2023-04-13T04:39:43.246Z,99997.89
2023-04-13T04:40:43.260Z,99997.64
2023-04-13T04:41:44.032Z,99996.84
2023-04-13T04:42:44.837Z,99996.92
2023-04-13T04:43:45.103Z,99996.59
2023-04-13T04:44:45.793Z,99996.30
2023-04-13T04:45:46.505Z,99995.72
2023-04-13T04:46:47.086Z,99995.20
2023-04-13T04:47:47.578Z,99995.38
2023-04-13T04:48:48.290Z,99994.96
2023-04-13T04:49:48.854Z,99995.41
2023-04-13T04:50:49.505Z,99995.16
2023-04-13T04:50:58.180Z,99995.59
2023-04-13T04:51:58.430Z,99995.67
2023-04-13T04:52:59.364Z,99995.13
2023-04-13T04:53:59.482Z,99995.29
2023-04-13T04:54:59.663Z,99995.38
2023-04-13T04:56:00.158Z,99995.55
2023-04-13T04:57:00.705Z,99995.38
2023-04-13T04:58:01.424Z,99996.05
2023-04-13T04:59:02.059Z,99996.14
2023-04-13T05:00:02.547Z,99996.59
2023-04-13T05:01:02.694Z,99996.43
2023-04-13T05:02:03.388Z,99996.22
2023-04-13T05:02:12.079Z,99996.64
2023-04-13T05:03:12.300Z,99996.90
2023-04-13T05:04:13.081Z,99997.23
2023-04-13T05:05:13.892Z,99996.85
2023-04-13T05:06:14.341Z,99996.73
2023-04-13T05:07:14.579Z,99996.73
2023-04-13T05:08:15.422Z,99995.55
2023-04-13T05:09:15.873Z,99995.89
2023-04-13T05:10:16.007Z,99997.06
2023-04-13T05:11:16.065Z,99997.82
2023-04-13T05:12:16.799Z,99998.74
2023-04-13T05:13:17.481Z,99999.41
2023-04-13T05:14:17.535Z,99999.66
2023-04-13T05:14:26.251Z,100000.97
2023-04-13T05:15:26.490Z,100001.97
2023-04-13T05:16:27.425Z,100002.86
2023-04-13T05:17:27.813Z,100004.87
2023-04-13T05:18:28.704Z,100006.59
2023-04-13T05:19:29.537Z,100007.86
2023-04-13T05:20:30.255Z,100009.45
2023-04-13T05:21:30.797Z,100011.05
2023-04-13T05:22:31.477Z,100013.36
2023-04-13T05:23:32.176Z,100015.45
2023-04-13T05:24:32.658Z,100015.70
2023-04-13T05:24:41.340Z,100017.27
2023-04-13T05:25:42.167Z,100018.44
2023-04-13T05:26:42.205Z,100018.78
2023-04-13T05:27:42.928Z,100020.29
2023-04-13T05:28:43.726Z,100022.72
2023-04-13T05:29:47.430Z,100024.48
2023-04-13T05:30:45.350Z,100026.08
2023-04-13T05:31:46.009Z,100027.47
2023-04-13T05:32:46.599Z,100028.98
2023-04-13T05:33:47.144Z,100030.16
2023-04-13T05:34:47.865Z,100030.50
2023-04-13T05:34:56.599Z,100032.01
2023-04-13T05:35:57.293Z,100033.19
2023-04-13T05:36:58.010Z,100033.94
2023-04-13T05:37:58.241Z,100034.52
2023-04-13T05:38:59.351Z,100035.92
2023-04-13T05:39:59.944Z,100037.27
2023-04-13T05:41:00.761Z,100038.86
2023-04-13T05:42:01.681Z,100041.03
2023-04-13T05:43:02.282Z,100042.55
2023-04-13T05:44:02.851Z,100044.45
2023-04-13T05:45:03.662Z,100045.95
2023-04-13T05:46:04.596Z,100047.22
2023-04-13T05:46:31.644Z,100048.72
2023-04-13T05:47:31.875Z,100050.20
2023-04-13T05:48:34.254Z,100051.88
2023-04-13T05:49:32.799Z,100053.01
2023-04-13T05:50:33.602Z,100054.73
2023-04-13T05:51:34.289Z,100055.99
2023-04-13T05:52:35.063Z,100057.97
2023-04-13T05:53:35.669Z,100059.48
2023-04-13T05:54:36.444Z,100060.06
2023-04-13T05:55:36.547Z,100062.08
2023-04-13T05:56:37.121Z,100064.14
2023-04-13T05:57:38.344Z,100065.57
2023-04-13T05:57:49.950Z,100067.67
2023-04-13T05:58:50.809Z,100069.18
2023-04-13T05:59:51.053Z,100070.19
2023-04-13T06:00:51.068Z,100072.45
2023-04-13T06:01:52.304Z,100073.97
2023-04-13T06:02:52.640Z,100075.14
2023-04-13T06:03:53.402Z,100076.70
2023-04-13T06:04:54.200Z,100077.55
2023-04-13T06:05:55.440Z,100078.89
2023-04-13T06:06:55.371Z,100079.22
2023-04-13T06:07:55.967Z,100080.36
2023-04-13T06:08:56.759Z,100081.58
2023-04-13T06:09:11.223Z,100083.00
2023-04-13T06:10:12.094Z,100084.72
2023-04-13T06:11:12.830Z,100085.35
2023-04-13T06:12:13.532Z,100086.70
2023-04-13T06:13:14.374Z,100087.95
2023-04-13T06:14:15.006Z,100089.84
2023-04-13T06:15:15.056Z,100091.31
2023-04-13T06:16:15.733Z,100093.48
2023-04-13T06:17:15.879Z,100094.70
2023-04-13T06:18:16.573Z,100096.17
2023-04-13T06:19:17.376Z,100097.56
2023-04-13T06:19:28.787Z,100099.15
2023-04-13T06:20:26.519Z,100100.41
2023-04-13T06:21:26.527Z,100101.12
2023-04-13T06:22:27.228Z,100102.55
2023-04-13T06:23:27.870Z,100103.58
2023-04-13T06:24:28.468Z,100105.22
2023-04-13T06:25:29.328Z,100106.39
2023-04-13T06:26:29.895Z,100108.52
2023-04-13T06:27:30.561Z,100110.23
2023-04-13T06:28:31.374Z,100111.09
2023-04-13T06:29:31.974Z,100113.22
2023-04-13T06:30:32.764Z,100114.59
2023-04-13T06:30:41.571Z,100104.11
2023-04-13T06:31:41.625Z,100105.87
2023-04-13T06:32:41.766Z,100106.52
2023-04-13T06:33:42.700Z,100107.84
2023-04-13T06:34:42.706Z,100109.08
2023-04-13T06:35:43.474Z,100110.61
2023-04-13T06:36:44.255Z,100112.27
2023-04-13T06:37:45.172Z,100113.42
2023-04-13T06:38:45.882Z,100114.58
2023-04-13T06:39:46.719Z,100115.22
2023-04-13T06:40:46.941Z,100115.84
2023-04-13T06:41:47.751Z,100116.36
2023-04-13T06:41:56.904Z,100105.19
2023-04-13T06:42:57.760Z,100106.41
2023-04-13T06:43:57.855Z,100107.20
2023-04-13T06:44:58.819Z,100107.73
2023-04-13T06:45:59.513Z,100106.09
2023-04-13T06:46:59.520Z,100106.56
2023-04-13T06:47:59.811Z,100107.53
2023-04-13T06:49:00.694Z,100107.92
2023-04-13T06:50:01.140Z,100107.13
2023-04-13T06:51:01.999Z,100107.27
2023-04-13T06:52:02.555Z,100107.41
2023-04-13T06:53:03.308Z,100106.91
2023-04-13T06:53:11.978Z,100096.95
2023-04-13T06:54:12.922Z,100098.17
2023-04-13T06:55:13.720Z,100099.23
2023-04-13T06:56:14.568Z,100099.81
2023-04-13T06:57:15.382Z,100100.88
2023-04-13T06:58:15.938Z,100101.55
2023-04-13T06:59:16.038Z,100102.52
2023-04-13T07:00:28.833Z,100103.20
2023-04-13T07:01:17.783Z,100104.42
2023-04-13T07:02:17.775Z,100105.02
2023-04-13T07:03:18.009Z,100105.83
2023-04-13T07:04:18.728Z,100106.72
2023-04-13T07:04:30.727Z,100098.77
2023-04-13T07:05:28.683Z,100099.61
2023-04-13T07:06:29.495Z,100101.63
2023-04-13T07:07:29.677Z,100103.06
2023-04-13T07:08:30.344Z,100104.80
2023-04-13T07:09:31.086Z,100106.48
2023-04-13T07:10:31.845Z,100107.96
2023-04-13T07:11:32.690Z,100109.69
2023-04-13T07:12:33.638Z,100111.30
2023-04-13T07:13:34.276Z,100113.10
2023-04-13T07:14:34.962Z,100113.91
2023-04-13T07:14:45.170Z,100103.59
2023-04-13T07:15:45.620Z,100105.54
2023-04-13T07:16:46.275Z,100105.03
2023-04-13T07:17:47.176Z,100106.38
2023-04-13T07:18:48.020Z,100108.11
2023-04-13T07:19:48.103Z,100110.30
2023-04-13T07:20:49.073Z,100112.20
2023-04-13T07:21:49.663Z,100114.43
2023-04-13T07:22:50.313Z,100116.75
2023-04-13T07:23:50.903Z,100118.48
2023-04-13T07:24:51.532Z,100119.78
2023-04-13T07:25:03.257Z,100102.38
2023-04-13T07:26:04.121Z,100151.43
2023-04-13T07:27:04.539Z,100150.38
2023-04-13T07:28:04.523Z,100149.03
2023-04-13T07:29:05.314Z,100149.41
2023-04-13T07:30:06.261Z,100149.12
2023-04-13T07:31:07.025Z,100149.19
2023-04-13T07:32:07.747Z,100149.32
2023-04-13T07:33:08.456Z,100149.78
2023-04-13T07:34:09.132Z,100149.78
2023-04-13T07:35:09.749Z,100149.73
2023-04-13T07:35:21.432Z,100116.39
2023-04-13T07:36:22.164Z,100152.59
2023-04-13T07:37:22.843Z,100152.84
2023-04-13T07:38:23.572Z,100153.36
2023-04-13T07:39:23.710Z,100153.47
2023-04-13T07:40:23.796Z,100153.81
2023-04-13T07:41:24.496Z,100155.07
2023-04-13T07:42:25.439Z,100155.19
2023-04-13T07:43:26.350Z,100155.94
2023-04-13T07:44:27.037Z,100156.73
2023-04-13T07:45:27.846Z,100157.66
2023-04-13T07:46:28.665Z,100159.00
2023-04-13T07:46:38.234Z,100149.19
2023-04-13T07:47:38.995Z,100185.66
2023-04-13T07:48:39.914Z,100185.98
2023-04-13T07:49:40.796Z,100184.44
2023-04-13T07:50:41.614Z,100185.19
2023-04-13T07:51:42.483Z,100185.81
2023-04-13T07:52:43.309Z,100186.79
2023-04-13T07:53:43.862Z,100187.45
2023-04-13T07:54:44.100Z,100188.00
2023-04-13T07:55:44.872Z,100188.89
2023-04-13T07:56:45.547Z,100189.47
2023-04-13T07:57:46.626Z,100191.03
2023-04-13T07:57:55.157Z,100124.44
2023-04-13T07:58:56.132Z,100199.89
2023-04-13T07:59:56.865Z,100200.82
2023-04-13T08:00:57.044Z,100201.83
2023-04-13T08:01:57.911Z,100202.41
2023-04-13T08:02:58.564Z,100203.34
2023-04-13T08:03:58.949Z,100203.97
2023-04-13T08:04:59.575Z,100204.81
2023-04-13T08:05:59.838Z,100205.56
2023-04-13T08:06:59.859Z,100206.24
2023-04-13T08:08:00.689Z,100206.49
2023-04-13T08:09:01.548Z,100207.38
2023-04-13T08:09:10.168Z,100190.90
2023-04-13T08:10:11.137Z,100221.88
2023-04-13T08:11:11.195Z,100221.84
2023-04-13T08:12:11.513Z,100222.51
2023-04-13T08:13:12.414Z,100223.23
2023-04-13T08:14:13.295Z,100223.27
2023-04-13T08:15:14.082Z,100223.86
2023-04-13T08:16:15.058Z,100224.03
2023-04-13T08:17:15.760Z,100224.75
2023-04-13T08:18:16.666Z,100225.38
2023-04-13T08:19:16.685Z,100225.84
2023-04-13T08:20:17.210Z,100226.80
2023-04-13T08:20:25.840Z,100257.30
2023-04-13T08:21:26.188Z,100251.55
2023-04-13T08:22:26.246Z,100251.05
2023-04-13T08:23:27.250Z,100250.92
2023-04-13T08:24:27.386Z,100250.75
2023-04-13T08:25:28.327Z,100251.33
2023-04-13T08:26:29.097Z,100251.22
2023-04-13T08:27:29.906Z,100251.72
2023-04-13T08:28:32.479Z,100252.05
2023-04-13T08:29:31.318Z,100252.47
2023-04-13T08:30:32.054Z,100253.15
2023-04-13T08:31:33.088Z,100253.81
2023-04-13T08:31:43.662Z,100260.30
2023-04-13T08:32:44.615Z,100256.69
2023-04-13T08:33:44.811Z,100256.81
2023-04-13T08:34:44.895Z,100257.66
2023-04-13T08:35:45.858Z,100258.38
2023-04-13T08:36:46.619Z,100259.00
2023-04-13T08:37:47.285Z,100259.30
2023-04-13T08:38:47.972Z,100259.37
2023-04-13T08:39:48.731Z,100260.12
2023-04-13T08:40:50.220Z,100260.58
2023-04-13T08:41:50.234Z,100260.34
2023-04-13T08:42:50.481Z,100261.56
2023-04-13T08:43:00.626Z,100291.31
2023-04-13T08:44:01.221Z,100280.74
2023-04-13T08:45:02.037Z,100280.23
2023-04-13T08:46:02.790Z,100279.94
2023-04-13T08:47:03.442Z,100280.64
2023-04-13T08:48:04.280Z,100280.30
2023-04-13T08:49:04.728Z,100280.98
2023-04-13T08:50:04.760Z,100281.43
2023-04-13T08:51:06.381Z,100281.89
2023-04-13T08:52:06.002Z,100281.88
2023-04-13T08:53:06.048Z,100281.52
2023-04-13T08:53:15.689Z,100302.13
2023-04-13T08:54:16.504Z,100298.33
2023-04-13T08:55:17.288Z,100298.48
2023-04-13T08:56:17.910Z,100299.07
2023-04-13T08:57:18.457Z,100300.12
2023-04-13T08:58:19.023Z,100301.45
2023-04-13T08:59:19.688Z,100301.92
2023-04-13T09:00:20.369Z,100304.02
2023-04-13T09:01:20.993Z,100305.92
2023-04-13T09:02:21.746Z,100308.13
2023-04-13T09:03:22.356Z,100310.44
2023-04-13T09:03:34.142Z,100300.20
2023-04-13T09:04:34.191Z,100302.80
2023-04-13T09:05:34.841Z,100304.78
2023-04-13T09:06:35.422Z,100306.99
2023-04-13T09:07:35.994Z,100308.63
2023-04-13T09:08:36.683Z,100310.32
2023-04-13T09:09:37.223Z,100312.84
2023-04-13T09:10:37.870Z,100314.56
2023-04-13T09:11:38.719Z,100316.36
2023-04-13T09:12:39.409Z,100318.05
2023-04-13T09:13:39.983Z,100319.89
2023-04-13T09:13:48.682Z,100074.84
2023-04-13T09:14:49.655Z,100350.50
2023-04-13T09:15:50.305Z,100350.14
2023-04-13T09:16:50.992Z,100350.37
2023-04-13T09:17:51.477Z,100350.59
2023-04-13T09:18:52.074Z,100350.88
2023-04-13T09:19:52.715Z,100351.23
2023-04-13T09:20:53.480Z,100351.66
2023-04-13T09:21:54.144Z,100351.78
2023-04-13T09:22:54.772Z,100352.16
2023-04-13T09:23:55.363Z,100352.72
2023-04-13T09:24:55.542Z,100353.14
2023-04-13T09:25:05.050Z,100112.48
2023-04-13T09:26:05.759Z,100361.84
2023-04-13T09:27:06.438Z,100361.61
2023-04-13T09:28:06.585Z,100361.52
2023-04-13T09:29:07.205Z,100361.52
2023-04-13T09:30:07.890Z,100361.58
2023-04-13T09:31:09.241Z,100361.45
2023-04-13T09:32:09.728Z,100361.84
2023-04-13T09:33:10.458Z,100361.73
2023-04-13T09:34:13.717Z,100362.27
2023-04-13T09:35:11.175Z,100362.67
2023-04-13T09:36:11.806Z,100364.19
2023-04-13T09:36:22.489Z,100356.38
2023-04-13T09:37:22.982Z,100357.95
2023-04-13T09:38:23.047Z,100358.91
2023-04-13T09:39:23.711Z,100360.75
2023-04-13T09:40:24.296Z,100361.88
2023-04-13T09:41:24.875Z,100363.06
2023-04-13T09:42:25.571Z,100364.39
2023-04-13T09:43:26.130Z,100365.61
2023-04-13T09:44:26.689Z,100365.69
2023-04-13T09:45:27.445Z,100366.16
2023-04-13T09:46:28.081Z,100366.70
2023-04-13T09:46:36.692Z,100201.38
2023-04-13T09:47:37.111Z,100375.06
2023-04-13T09:48:37.676Z,100374.65
2023-04-13T09:49:38.316Z,100374.86
2023-04-13T09:50:38.983Z,100374.81
2023-04-13T09:51:39.618Z,100374.22
2023-04-13T09:52:40.332Z,100373.45
2023-04-13T09:53:40.904Z,100373.47
2023-04-13T09:54:41.598Z,100373.94
2023-04-13T09:55:42.243Z,100374.05
2023-04-13T09:56:42.885Z,100374.15
2023-04-13T09:57:43.480Z,100374.94
2023-04-13T09:57:56.642Z,100188.81
2023-04-13T09:58:57.522Z,100389.48
2023-04-13T09:59:57.994Z,100388.28
2023-04-13T10:00:58.734Z,100387.88
2023-04-13T10:01:59.696Z,100387.18
2023-04-13T10:03:00.442Z,100385.97
2023-04-13T10:04:01.363Z,100384.09
2023-04-13T10:05:01.890Z,100382.29
2023-04-13T10:06:02.697Z,100380.05
2023-04-13T10:07:03.316Z,100378.44
2023-04-13T10:08:04.036Z,100376.76
2023-04-13T10:09:05.737Z,100375.25
2023-04-13T10:10:05.331Z,100373.89
2023-04-13T10:10:14.975Z,100179.49
2023-04-13T10:11:15.582Z,100368.80
2023-04-13T10:12:15.397Z,100367.38
2023-04-13T10:13:21.829Z,100367.26
2023-04-13T10:14:16.492Z,100367.36
2023-04-13T10:15:17.230Z,100367.69
2023-04-13T10:16:18.092Z,100368.00
2023-04-13T10:17:18.897Z,100368.66
2023-04-13T10:18:19.712Z,100368.78
2023-04-13T10:19:20.289Z,100369.84
2023-04-13T10:20:21.012Z,100370.67
2023-04-13T10:20:29.685Z,100179.50
2023-04-13T10:21:29.935Z,100372.87
2023-04-13T10:22:30.877Z,100372.75
2023-04-13T10:23:31.585Z,100372.84
2023-04-13T10:24:32.339Z,100371.80
2023-04-13T10:25:35.085Z,100370.95
2023-04-13T10:26:33.488Z,100369.78
2023-04-13T10:27:34.431Z,100367.91
2023-04-13T10:28:35.266Z,100366.75
2023-04-13T10:29:36.112Z,100364.77
2023-04-13T10:30:36.742Z,100362.50
2023-04-13T10:31:37.676Z,100360.49
2023-04-13T10:31:47.337Z,100040.61
2023-04-13T10:32:47.992Z,100345.05
2023-04-13T10:33:48.740Z,100345.53
2023-04-13T10:34:49.562Z,100346.35
2023-04-13T10:35:50.554Z,100347.33
2023-04-13T10:36:51.221Z,100347.37
2023-04-13T10:37:51.929Z,100349.25
2023-04-13T10:38:52.613Z,100351.83
2023-04-13T10:39:53.386Z,100353.58
2023-04-13T10:40:54.046Z,100355.86
2023-04-13T10:41:55.059Z,100358.50
2023-04-13T10:42:55.309Z,100361.22
2023-04-13T10:43:04.991Z,100134.77
2023-04-13T10:44:05.688Z,100419.10
2023-04-13T10:45:06.502Z,100418.53
2023-04-13T10:46:07.182Z,100418.06
2023-04-13T10:47:08.066Z,100418.50
2023-04-13T10:48:08.843Z,100417.64
2023-04-13T10:49:09.477Z,100417.13